createdAt,value
2023-04-08T00:00:50.607Z,20.53
2023-04-08T00:03:18.260Z,19.13
2023-04-08T00:05:45.350Z,18.93
2023-04-08T00:08:12.315Z,19.83
2023-04-08T00:10:39.388Z,20.67
2023-04-08T00:13:06.782Z,21.33
2023-04-08T00:15:33.791Z,22.73
2023-04-08T00:18:01.125Z,18.33
2023-04-08T00:20:28.185Z,19.33
2023-04-08T00:22:55.386Z,21.50
2023-04-08T00:25:24.788Z,21.33
2023-04-08T00:27:52.511Z,20.60
2023-04-08T00:30:19.568Z,21.03
2023-04-08T00:32:46.826Z,21.37
2023-04-08T00:35:14.400Z,18.83
2023-04-08T00:37:41.537Z,18.83
2023-04-08T00:40:09.215Z,25.23
2023-04-08T00:42:36.646Z,21.87
2023-04-08T00:45:04.024Z,22.03
2023-04-08T00:47:31.373Z,22.47
2023-04-08T00:49:58.430Z,24.13
2023-04-08T00:52:25.744Z,19.97
2023-04-08T00:54:53.067Z,18.53
2023-04-08T00:57:20.100Z,22.17
2023-04-08T00:59:47.207Z,20.60
2023-04-08T01:02:30.018Z,20.33
2023-04-08T01:05:13.779Z,22.17
2023-04-08T01:07:47.784Z,19.20
2023-04-08T01:10:27.361Z,21.40
2023-04-08T01:13:18.134Z,18.53
2023-04-08T01:15:46.268Z,22.40
2023-04-08T01:18:16.492Z,19.03
2023-04-08T01:20:45.591Z,18.87
2023-04-08T01:23:41.654Z,16.97
2023-04-08T01:26:11.394Z,18.27
2023-04-08T01:28:40.987Z,18.90
2023-04-08T01:31:08.618Z,17.03
2023-04-08T01:33:36.772Z,18.73
2023-04-08T01:36:04.504Z,16.10
2023-04-08T01:38:34.026Z,15.47
2023-04-08T01:41:01.161Z,18.03
2023-04-08T01:43:32.281Z,16.53
2023-04-08T01:46:01.183Z,16.97
2023-04-08T01:48:29.453Z,15.20
2023-04-08T01:50:57.478Z,15.03
2023-04-08T01:53:24.775Z,16.80
2023-04-08T01:56:02.822Z,16.13
2023-04-08T01:58:41.084Z,17.67
2023-04-08T02:01:14.133Z,15.40
2023-04-08T02:03:44.620Z,15.90
2023-04-08T02:06:11.703Z,18.57
2023-04-08T02:08:38.919Z,16.13
2023-04-08T02:11:06.256Z,14.20
2023-04-08T02:13:33.640Z,17.17
2023-04-08T02:16:22.616Z,18.63
2023-04-08T02:19:49.324Z,18.23
2023-04-08T02:22:57.767Z,16.60
2023-04-08T02:25:26.247Z,21.30
2023-04-08T02:27:54.681Z,20.63
2023-04-08T02:30:23.366Z,16.13
2023-04-08T02:32:51.872Z,18.97
2023-04-08T02:35:20.204Z,20.50
2023-04-08T02:37:50.391Z,19.87
2023-04-08T02:40:32.861Z,19.67
2023-04-08T02:43:00.472Z,17.53
2023-04-08T02:45:32.036Z,21.90
2023-04-08T02:48:02.588Z,20.00
2023-04-08T02:50:29.601Z,22.97
2023-04-08T02:52:56.634Z,19.43
2023-04-08T02:55:23.657Z,20.07
2023-04-08T02:57:50.667Z,21.73
2023-04-08T03:00:18.163Z,18.57
2023-04-08T03:02:45.341Z,19.93
2023-04-08T03:05:12.530Z,17.87
2023-04-08T03:07:39.782Z,21.87
2023-04-08T03:10:07.764Z,17.60
2023-04-08T03:12:34.954Z,19.13
2023-04-08T03:15:03.457Z,23.67
2023-04-08T03:17:33.791Z,32.80
2023-04-08T03:20:07.194Z,33.93
2023-04-08T03:22:36.148Z,28.67
2023-04-08T03:25:03.340Z,22.90
2023-04-08T03:27:30.370Z,25.70
2023-04-08T03:29:57.950Z,21.23
2023-04-08T03:32:25.278Z,21.20
2023-04-08T03:34:52.339Z,22.83
2023-04-08T03:37:19.346Z,20.37
2023-04-08T03:39:46.517Z,22.10
2023-04-08T03:42:13.512Z,21.20
2023-04-08T03:44:40.610Z,24.97
2023-04-08T03:47:07.660Z,24.27
2023-04-08T03:49:34.752Z,23.33
2023-04-08T03:52:02.007Z,26.90
2023-04-08T03:54:29.050Z,26.27
2023-04-08T03:56:56.257Z,25.10
2023-04-08T03:59:23.385Z,32.60
2023-04-08T04:01:51.511Z,29.50
2023-04-08T04:04:19.063Z,26.50
2023-04-08T04:06:46.317Z,27.67
2023-04-08T04:09:13.475Z,30.23
2023-04-08T04:11:40.539Z,23.27
2023-04-08T04:14:07.554Z,24.07
2023-04-08T04:16:34.587Z,25.63
2023-04-08T04:19:01.632Z,19.47
2023-04-08T04:21:28.657Z,17.90
2023-04-08T04:23:55.721Z,22.57
2023-04-08T04:26:22.820Z,21.03
2023-04-08T04:28:50.194Z,19.60
2023-04-08T04:31:28.049Z,21.20
2023-04-08T04:33:55.308Z,19.37
2023-04-08T04:36:22.395Z,23.00
2023-04-08T04:38:51.566Z,21.83
2023-04-08T04:41:18.820Z,22.37
2023-04-08T04:43:45.866Z,24.13
2023-04-08T04:46:12.921Z,29.30
2023-04-08T04:48:40.602Z,23.77
2023-04-08T04:51:07.696Z,25.80
2023-04-08T04:53:34.817Z,27.17
2023-04-08T04:56:02.139Z,29.73
2023-04-08T04:58:29.932Z,29.77
2023-04-08T05:00:57.226Z,32.43
2023-04-08T05:03:24.444Z,27.90
2023-04-08T05:05:53.284Z,25.93
2023-04-08T05:08:21.519Z,26.07
2023-04-08T05:10:50.664Z,27.63
2023-04-08T05:13:18.597Z,21.20
2023-04-08T05:15:46.069Z,22.83
2023-04-08T05:18:13.450Z,22.37
2023-04-08T05:20:40.540Z,24.73
2023-04-08T05:23:08.082Z,25.97
2023-04-08T05:25:35.106Z,19.57
2023-04-08T05:28:02.519Z,23.63
2023-04-08T05:30:29.583Z,22.13
2023-04-08T05:32:58.636Z,24.03
2023-04-08T05:35:27.663Z,19.17
2023-04-08T05:37:54.829Z,22.80
2023-04-08T05:40:21.882Z,45.43
2023-04-08T05:42:48.955Z,61.03
2023-04-08T05:45:16.333Z,54.13
2023-04-08T05:47:43.502Z,66.60
2023-04-08T05:50:11.518Z,31.90
2023-04-08T05:52:45.389Z,20.33
2023-04-08T05:55:13.943Z,24.70
2023-04-08T05:57:41.843Z,22.23
2023-04-08T06:00:11.115Z,20.70
2023-04-08T06:02:39.023Z,26.87
2023-04-08T06:05:06.898Z,37.03
2023-04-08T06:07:34.988Z,28.50
2023-04-08T06:10:02.710Z,16.33
2023-04-08T06:12:30.058Z,21.70
2023-04-08T06:14:57.164Z,20.80
2023-04-08T06:17:24.707Z,14.77
2023-04-08T06:19:51.787Z,15.60
2023-04-08T06:22:18.739Z,16.80
2023-04-08T06:24:48.241Z,15.57
2023-04-08T06:27:15.908Z,15.50
2023-04-08T06:29:43.150Z,14.83
2023-04-08T06:32:11.328Z,15.77
2023-04-08T06:34:38.452Z,16.30
2023-04-08T06:37:06.440Z,16.63
2023-04-08T06:39:34.175Z,15.57
2023-04-08T06:42:01.610Z,15.50
2023-04-08T06:44:45.017Z,15.67
2023-04-08T06:47:12.016Z,18.30
2023-04-08T06:49:39.172Z,16.40
2023-04-08T06:52:06.992Z,16.37
2023-04-08T06:54:33.969Z,14.40
2023-04-08T06:57:01.192Z,19.20
2023-04-08T06:59:28.134Z,16.93
2023-04-08T07:01:55.520Z,16.30
2023-04-08T07:04:22.519Z,16.00
2023-04-08T07:06:49.574Z,17.90
2023-04-08T07:09:16.549Z,13.93
2023-04-08T07:11:43.583Z,13.70
2023-04-08T07:14:11.676Z,14.60
2023-04-08T07:16:38.724Z,15.83
2023-04-08T07:19:05.826Z,16.93
2023-04-08T07:21:33.165Z,14.10
2023-04-08T07:24:00.247Z,15.13
2023-04-08T07:26:28.447Z,18.40
2023-04-08T07:28:55.410Z,16.20
2023-04-08T07:31:22.449Z,12.27
2023-04-08T07:33:49.448Z,12.50
2023-04-08T07:36:18.328Z,12.73
2023-04-08T07:38:45.495Z,11.70
2023-04-08T07:41:12.548Z,11.83
2023-04-08T07:43:39.918Z,16.90
2023-04-08T07:46:07.718Z,11.77
2023-04-08T07:48:35.673Z,12.80
2023-04-08T07:51:11.130Z,11.85
2023-04-08T07:53:40.340Z,11.23
2023-04-08T07:56:15.285Z,11.33
2023-04-08T07:58:42.892Z,10.43
2023-04-08T08:01:22.440Z,10.93
2023-04-08T08:03:51.860Z,11.20
2023-04-08T08:06:19.505Z,11.23
2023-04-08T08:08:46.976Z,11.57
2023-04-08T08:11:14.093Z,10.60
2023-04-08T08:13:41.217Z,11.38
2023-04-08T08:16:11.407Z,10.93
2023-04-08T08:18:40.190Z,11.27
2023-04-08T08:21:09.166Z,11.97
2023-04-08T08:23:37.443Z,14.25
2023-04-08T08:26:10.187Z,12.18
2023-04-08T08:28:38.612Z,10.88
2023-04-08T08:31:06.220Z,12.30
2023-04-08T08:33:33.880Z,10.77
2023-04-08T08:36:01.203Z,11.02
2023-04-08T08:38:28.267Z,10.90
2023-04-08T08:41:00.218Z,10.85
2023-04-08T08:43:29.172Z,11.57
2023-04-08T08:45:56.411Z,13.07
2023-04-08T08:48:23.535Z,10.20
2023-04-08T08:50:50.757Z,13.02
2023-04-08T08:53:18.061Z,11.55
2023-04-08T08:56:13.648Z,12.32
2023-04-08T08:58:32.428Z,11.32
2023-04-08T09:00:59.391Z,11.25
2023-04-08T09:03:29.830Z,11.20
2023-04-08T09:06:01.953Z,11.07
2023-04-08T09:08:34.810Z,11.43
2023-04-08T09:11:22.353Z,10.85
2023-04-08T09:13:49.575Z,11.90
2023-04-08T09:16:19.844Z,12.75
2023-04-08T09:18:49.430Z,10.65
2023-04-08T09:21:18.067Z,11.85
2023-04-08T09:23:49.535Z,14.27
2023-04-08T09:26:24.216Z,19.48
2023-04-08T09:29:18.418Z,15.18
2023-04-08T09:32:00.197Z,11.35
2023-04-08T09:34:29.672Z,12.73
2023-04-08T09:36:56.896Z,15.73
2023-04-08T09:39:24.220Z,14.93
2023-04-08T09:41:52.599Z,12.43
2023-04-08T09:44:22.062Z,11.85
2023-04-08T09:47:24.516Z,13.43
2023-04-08T09:49:58.592Z,11.88
2023-04-08T09:52:34.033Z,14.30
2023-04-08T09:55:06.682Z,10.98
2023-04-08T09:58:16.774Z,10.00
2023-04-08T10:00:52.448Z,14.10
2023-04-08T10:03:41.290Z,11.27
2023-04-08T10:06:10.397Z,14.18
2023-04-08T10:08:37.818Z,11.45
2023-04-08T10:11:05.036Z,11.82
2023-04-08T10:13:34.350Z,12.88
2023-04-08T10:16:24.724Z,12.75
2023-04-08T10:18:58.283Z,13.88
2023-04-08T10:21:51.033Z,13.00
2023-04-08T10:24:19.014Z,14.30
2023-04-08T10:26:46.288Z,12.95
2023-04-08T10:29:18.890Z,19.98
2023-04-08T10:31:47.581Z,12.57
2023-04-08T10:34:26.459Z,11.25
2023-04-08T10:36:55.837Z,13.73
2023-04-08T10:39:23.054Z,13.70
2023-04-08T10:41:51.616Z,9.85
2023-04-08T10:44:26.905Z,10.07
2023-04-08T10:46:54.644Z,11.85
2023-04-08T10:49:22.608Z,9.65
2023-04-08T10:51:50.040Z,13.05
2023-04-08T10:54:18.955Z,12.60
2023-04-08T10:56:50.782Z,9.75
2023-04-08T10:59:28.609Z,12.20
2023-04-08T11:01:55.802Z,30.35
2023-04-08T11:04:23.742Z,9.02
2023-04-08T11:06:51.633Z,8.55
2023-04-08T11:09:19.114Z,10.32
2023-04-08T11:11:46.911Z,9.05
2023-04-08T11:14:14.842Z,12.23
2023-04-08T11:16:42.706Z,10.07
2023-04-08T11:19:09.869Z,8.10
2023-04-08T11:21:38.660Z,9.95
2023-04-08T11:24:13.413Z,9.00
2023-04-08T11:26:42.180Z,8.52
2023-04-08T11:29:14.409Z,7.07
2023-04-08T11:31:44.132Z,10.63
2023-04-08T11:34:11.459Z,8.20
2023-04-08T11:36:41.724Z,7.85
2023-04-08T11:39:12.331Z,9.07
2023-04-08T11:41:43.168Z,10.45
2023-04-08T11:44:10.658Z,8.70
2023-04-08T11:46:38.072Z,9.63
2023-04-08T11:49:08.269Z,8.27
2023-04-08T11:51:54.980Z,6.85
2023-04-08T11:54:32.665Z,7.68
2023-04-08T11:57:00.037Z,6.38
2023-04-08T11:59:29.322Z,7.50
2023-04-08T12:01:57.369Z,6.97
2023-04-08T12:04:24.620Z,5.72
2023-04-08T12:06:52.515Z,6.82
2023-04-08T12:09:19.635Z,8.77
2023-04-08T12:11:46.800Z,6.85
2023-04-08T12:14:14.760Z,5.80
2023-04-08T12:16:41.912Z,6.95
2023-04-08T12:19:08.943Z,7.60
2023-04-08T12:21:36.141Z,6.20
2023-04-08T12:24:03.301Z,7.57
2023-04-08T12:26:30.288Z,6.15
2023-04-08T12:28:57.386Z,7.00
2023-04-08T12:31:24.461Z,5.65
2023-04-08T12:33:51.785Z,7.03
2023-04-08T12:36:19.008Z,6.75
2023-04-08T12:38:45.984Z,7.13
2023-04-08T12:41:13.042Z,7.45
2023-04-08T12:43:39.975Z,6.93
2023-04-08T12:46:07.345Z,5.65
2023-04-08T12:48:34.608Z,6.28
2023-04-08T12:51:01.552Z,7.00
2023-04-08T12:53:28.554Z,7.88
2023-04-08T12:55:57.280Z,6.93
2023-04-08T12:58:25.689Z,6.10
2023-04-08T13:00:52.793Z,6.70
2023-04-08T13:03:19.973Z,5.65
2023-04-08T13:05:47.014Z,5.65
2023-04-08T13:08:13.967Z,6.57
2023-04-08T13:10:42.674Z,7.35
2023-04-08T13:13:09.700Z,5.55
2023-04-08T13:15:36.930Z,6.55
2023-04-08T13:18:04.871Z,5.68
2023-04-08T13:20:31.961Z,9.80
2023-04-08T13:23:00.580Z,5.00
2023-04-08T13:25:28.019Z,6.15
2023-04-08T13:27:55.160Z,5.90
2023-04-08T13:30:22.147Z,5.65
2023-04-08T13:32:49.261Z,7.80
2023-04-08T13:35:16.306Z,6.20
2023-04-08T13:37:43.411Z,10.10
2023-04-08T13:40:12.161Z,7.03
2023-04-08T13:42:39.276Z,6.55
2023-04-08T13:45:07.144Z,5.97
2023-04-08T13:47:35.871Z,4.70
2023-04-08T13:50:06.227Z,4.90
2023-04-08T13:52:33.356Z,6.22
2023-04-08T13:55:01.075Z,7.43
2023-04-08T13:57:28.345Z,5.68
2023-04-08T13:59:55.453Z,6.60
2023-04-08T14:02:23.279Z,7.13
2023-04-08T14:04:50.592Z,7.15
2023-04-08T14:07:17.641Z,6.40
2023-04-08T14:09:44.656Z,5.22
2023-04-08T14:12:11.670Z,7.18
2023-04-08T14:14:38.685Z,6.60
2023-04-08T14:17:05.919Z,6.47
2023-04-08T14:19:33.122Z,6.00
2023-04-08T14:22:00.106Z,6.57
2023-04-08T14:24:27.127Z,5.93
2023-04-08T14:26:54.170Z,6.25
2023-04-08T14:29:21.206Z,7.22
2023-04-08T14:31:48.182Z,8.48
2023-04-08T14:34:15.455Z,4.93
2023-04-08T14:36:42.647Z,7.10
2023-04-08T14:39:09.752Z,6.22
2023-04-08T14:41:36.735Z,6.28
2023-04-08T14:44:04.471Z,7.53
2023-04-08T14:46:31.706Z,6.28
2023-04-08T14:48:59.107Z,8.15
2023-04-08T14:51:26.094Z,7.45
2023-04-08T14:53:53.067Z,6.78
2023-04-08T14:56:20.124Z,5.30
2023-04-08T14:58:47.116Z,5.60
2023-04-08T15:01:14.256Z,6.78
2023-04-08T15:03:41.393Z,6.78
2023-04-08T15:06:08.509Z,9.10
2023-04-08T15:08:35.639Z,6.18
2023-04-08T15:11:02.600Z,6.25
2023-04-08T15:13:29.553Z,6.50
2023-04-08T15:15:56.716Z,7.57
2023-04-08T15:18:23.842Z,8.43
2023-04-08T15:20:50.847Z,6.13
2023-04-08T15:23:17.986Z,5.60
2023-04-08T15:25:45.000Z,5.50
2023-04-08T15:28:12.246Z,7.40
2023-04-08T15:30:39.306Z,6.32
2023-04-08T15:33:06.383Z,4.72
2023-04-08T15:35:33.730Z,4.70
2023-04-08T15:38:01.055Z,6.20
2023-04-08T15:40:34.020Z,4.60
2023-04-08T15:43:01.286Z,4.70
2023-04-08T15:45:28.646Z,4.63
2023-04-08T15:47:56.003Z,6.18
2023-04-08T15:50:23.129Z,4.50
2023-04-08T15:52:50.176Z,6.15
2023-04-08T15:55:17.876Z,7.28
2023-04-08T15:57:44.798Z,6.97
2023-04-08T16:00:13.943Z,6.45
2023-04-08T16:02:44.100Z,5.95
2023-04-08T16:05:12.441Z,6.78
2023-04-08T16:07:39.431Z,5.55
2023-04-08T16:10:07.266Z,7.15
2023-04-08T16:12:34.705Z,5.85
2023-04-08T16:15:01.770Z,7.70
2023-04-08T16:17:28.819Z,7.15
2023-04-08T16:19:55.860Z,7.00
2023-04-08T16:22:23.029Z,8.23
2023-04-08T16:24:49.991Z,8.77
2023-04-08T16:27:17.046Z,9.43
2023-04-08T16:29:44.059Z,8.35
2023-04-08T16:32:11.283Z,6.07
2023-04-08T16:34:38.245Z,6.80
2023-04-08T16:37:05.307Z,6.95
2023-04-08T16:39:32.637Z,6.07
2023-04-08T16:42:00.555Z,5.75
2023-04-08T16:44:27.769Z,6.15
2023-04-08T16:46:54.765Z,6.55
2023-04-08T16:49:21.982Z,6.53
2023-04-08T16:51:49.081Z,7.70
2023-04-08T16:54:16.279Z,6.75
2023-04-08T16:56:45.630Z,7.55
2023-04-08T16:59:13.327Z,5.57
2023-04-08T17:01:40.787Z,5.75
2023-04-08T17:04:07.835Z,6.65
2023-04-08T17:06:35.778Z,5.10
2023-04-08T17:09:04.052Z,6.38
2023-04-08T17:11:31.447Z,6.93
2023-04-08T17:13:58.627Z,8.68
2023-04-08T17:16:25.894Z,8.68
2023-04-08T17:18:53.039Z,7.35
2023-04-08T17:21:21.187Z,8.98
2023-04-08T17:23:48.501Z,6.93
2023-04-08T17:26:15.488Z,6.63
2023-04-08T17:28:43.401Z,6.55
2023-04-08T17:31:11.029Z,7.25
2023-04-08T17:33:38.003Z,6.65
2023-04-08T17:36:05.563Z,7.78
2023-04-08T17:38:32.899Z,6.95
2023-04-08T17:40:59.875Z,8.02
2023-04-08T17:43:27.223Z,7.13
2023-04-08T17:45:54.501Z,8.52
2023-04-08T17:48:21.475Z,7.30
2023-04-08T17:50:48.468Z,8.95
2023-04-08T17:53:15.439Z,6.00
2023-04-08T17:55:42.812Z,7.85
2023-04-08T17:58:09.833Z,6.20
2023-04-08T18:00:36.782Z,6.82
2023-04-08T18:03:04.416Z,13.18
2023-04-08T18:05:31.905Z,10.38
2023-04-08T18:07:59.320Z,15.02
2023-04-08T18:10:26.380Z,14.05
2023-04-08T18:13:03.774Z,8.65
2023-04-08T18:15:38.084Z,10.00
2023-04-08T18:18:05.252Z,21.73
2023-04-08T18:20:36.648Z,10.30
2023-04-08T18:23:04.472Z,9.98
2023-04-08T18:25:32.298Z,17.70
2023-04-08T18:27:59.568Z,11.40
2023-04-08T18:30:26.943Z,14.52
2023-04-08T18:32:54.099Z,16.65
2023-04-08T18:35:21.188Z,15.73
2023-04-08T18:37:48.218Z,13.70
2023-04-08T18:40:15.470Z,13.05
2023-04-08T18:42:42.414Z,8.75
2023-04-08T18:45:09.907Z,11.77
2023-04-08T18:47:37.852Z,9.07
2023-04-08T18:50:06.471Z,7.57
2023-04-08T18:52:33.576Z,9.25
2023-04-08T18:55:01.091Z,7.85
2023-04-08T18:57:28.178Z,7.68
2023-04-08T18:59:55.084Z,9.57
2023-04-08T19:02:22.941Z,8.82
2023-04-08T19:04:50.092Z,8.32
2023-04-08T19:07:17.805Z,7.35
2023-04-08T19:09:44.814Z,9.32
2023-04-08T19:12:11.880Z,9.13
2023-04-08T19:14:39.559Z,10.15
2023-04-08T19:17:06.694Z,9.55
2023-04-08T19:19:33.700Z,8.75
2023-04-08T19:22:02.879Z,8.63
2023-04-08T19:24:29.865Z,10.82
2023-04-08T19:26:56.870Z,8.52
2023-04-08T19:29:24.486Z,11.85
2023-04-08T19:31:52.880Z,10.25
2023-04-08T19:34:20.018Z,9.13
2023-04-08T19:36:47.796Z,10.98
2023-04-08T19:39:14.804Z,10.68
2023-04-08T19:41:41.761Z,12.48
2023-04-08T19:44:08.766Z,11.13
2023-04-08T19:46:35.809Z,10.30
2023-04-08T19:49:03.189Z,9.80
2023-04-08T19:51:31.309Z,11.98
2023-04-08T19:53:58.931Z,10.25
2023-04-08T19:56:26.406Z,12.60
2023-04-08T19:58:53.569Z,16.15
2023-04-08T20:01:21.208Z,16.90
2023-04-08T20:03:50.673Z,11.13
2023-04-08T20:06:19.102Z,15.05
2023-04-08T20:08:46.766Z,26.73
2023-04-08T20:11:13.805Z,30.38
2023-04-08T20:13:41.097Z,31.77
2023-04-08T20:16:08.193Z,23.45
2023-04-08T20:18:35.220Z,26.90
2023-04-08T20:21:02.327Z,34.15
2023-04-08T20:23:29.368Z,44.10
2023-04-08T20:25:56.728Z,45.63
2023-04-08T20:28:23.850Z,39.05
2023-04-08T20:30:51.851Z,29.05
2023-04-08T20:33:19.203Z,17.70
2023-04-08T20:35:47.534Z,19.17
2023-04-08T20:38:14.622Z,18.98
2023-04-08T20:40:45.521Z,19.17
2023-04-08T20:43:12.606Z,18.48
2023-04-08T20:45:39.580Z,18.73
2023-04-08T20:48:07.337Z,18.13
2023-04-08T20:50:34.928Z,18.90
2023-04-08T20:53:01.900Z,18.55
2023-04-08T20:55:28.892Z,17.88
2023-04-08T20:57:55.904Z,19.33
2023-04-08T21:00:22.913Z,19.48
2023-04-08T21:02:51.011Z,18.75
2023-04-08T21:05:18.130Z,17.08
2023-04-08T21:07:45.194Z,19.95
2023-04-08T21:10:17.376Z,22.08
2023-04-08T21:12:45.682Z,19.15
2023-04-08T21:15:12.672Z,15.25
2023-04-08T21:17:39.652Z,15.93
2023-04-08T21:20:07.580Z,14.70
2023-04-08T21:22:34.560Z,17.50
2023-04-08T21:25:01.534Z,16.20
2023-04-08T21:27:29.072Z,13.02
2023-04-08T21:29:56.196Z,15.85
2023-04-08T21:32:23.461Z,17.88
2023-04-08T21:34:54.074Z,14.60
2023-04-08T21:37:21.174Z,14.07
2023-04-08T21:39:48.416Z,19.20
2023-04-08T21:42:15.382Z,13.20
2023-04-08T21:44:42.379Z,15.23
2023-04-08T21:47:09.350Z,18.23
2023-04-08T21:49:36.619Z,16.63
2023-04-08T21:52:04.902Z,16.73
2023-04-08T21:54:31.886Z,20.02
2023-04-08T21:56:58.966Z,13.73
2023-04-08T21:59:27.673Z,15.90
2023-04-08T22:01:54.811Z,15.73
2023-04-08T22:04:21.890Z,16.08
2023-04-08T22:06:49.589Z,15.80
2023-04-08T22:09:16.905Z,16.40
2023-04-08T22:11:43.963Z,13.88
2023-04-08T22:14:10.981Z,15.40
2023-04-08T22:16:38.389Z,15.73
2023-04-08T22:19:05.509Z,13.98
2023-04-08T22:21:32.848Z,14.38
2023-04-08T22:23:59.899Z,14.73
2023-04-08T22:26:27.585Z,13.60
2023-04-08T22:28:55.092Z,13.43
2023-04-08T22:31:22.347Z,15.23
2023-04-08T22:33:49.500Z,13.77
2023-04-08T22:36:17.010Z,20.08
2023-04-08T22:38:44.140Z,95.85
2023-04-08T22:41:19.481Z,55.53
2023-04-08T22:43:46.945Z,26.67
2023-04-08T22:46:14.490Z,24.40
2023-04-08T22:48:41.856Z,23.85
2023-04-08T22:51:10.174Z,32.20
2023-04-08T22:53:37.754Z,44.05
2023-04-08T22:56:05.339Z,35.93
2023-04-08T22:58:32.326Z,34.08
2023-04-08T23:00:59.319Z,29.65
2023-04-08T23:03:26.535Z,22.27
2023-04-08T23:05:53.593Z,19.33
2023-04-08T23:08:20.818Z,20.65
2023-04-08T23:10:47.773Z,21.85
2023-04-08T23:13:14.685Z,25.38
2023-04-08T23:15:41.986Z,19.90
2023-04-08T23:18:09.038Z,19.67
2023-04-08T23:20:36.077Z,15.95
2023-04-08T23:23:03.566Z,15.40
2023-04-08T23:25:30.788Z,14.07
2023-04-08T23:27:57.847Z,14.27
2023-04-08T23:30:24.844Z,17.95
2023-04-08T23:32:51.830Z,14.55
2023-04-08T23:35:19.195Z,14.75
2023-04-08T23:37:46.318Z,21.17
2023-04-08T23:40:13.426Z,18.15
2023-04-08T23:42:40.416Z,14.68
2023-04-08T23:45:07.961Z,14.18
2023-04-08T23:47:35.010Z,15.53
2023-04-08T23:50:02.110Z,14.10
2023-04-08T23:52:29.119Z,13.38
2023-04-08T23:54:56.059Z,14.13
2023-04-08T23:57:23.188Z,15.20
2023-04-08T23:59:50.354Z,21.17
